sensor_id;sensor_type;location;lat;lon;timestamp;P1;durP1;ratioP1;P2;durP2;ratioP2
9264;SDS011;4669;49.594;10.958;2023-02-15T05:25:34;29.50;;;21.63;;
9264;SDS011;4669;49.594;10.958;2023-02-15T05:30:58;28.83;;;21.23;;
9264;SDS011;4669;49.594;10.958;2023-02-15T05:36:05;30.58;;;22.08;;
9264;SDS011;4669;49.594;10.958;2023-02-15T05:41:09;27.77;;;19.92;;
9264;SDS011;4669;49.594;10.958;2023-02-15T05:46:12;25.33;;;19.10;;
9264;SDS011;4669;49.594;10.958;2023-02-15T05:51:14;25.05;;;18.92;;
9264;SDS011;4669;49.594;10.958;2023-02-15T05:56:18;23.45;;;18.27;;
9264;SDS011;4669;49.594;10.958;2023-02-15T06:01:20;23.50;;;19.15;;
9264;SDS011;4669;49.594;10.958;2023-02-15T06:06:23;23.40;;;17.77;;
9264;SDS011;4669;49.594;10.958;2023-02-15T06:11:26;25.00;;;19.10;;
9264;SDS011;4669;49.594;10.958;2023-02-15T06:16:28;26.95;;;19.52;;
9264;SDS011;4669;49.594;10.958;2023-02-15T06:21:30;26.08;;;19.83;;
9264;SDS011;4669;49.594;10.958;2023-02-15T06:26:34;28.10;;;19.90;;
9264;SDS011;4669;49.594;10.958;2023-02-15T06:31:36;23.83;;;18.42;;
9264;SDS011;4669;49.594;10.958;2023-02-15T06:36:38;24.23;;;18.75;;
9264;SDS011;4669;49.594;10.958;2023-02-15T06:41:41;26.53;;;20.17;;
9264;SDS011;4669;49.594;10.958;2023-02-15T06:46:43;28.13;;;21.52;;
9264;SDS011;4669;49.594;10.958;2023-02-15T06:51:45;26.63;;;20.37;;
9264;SDS011;4669;49.594;10.958;2023-02-15T06:56:49;27.50;;;21.53;;
9264;SDS011;4669;49.594;10.958;2023-02-15T07:01:50;28.15;;;21.48;;
9264;SDS011;4669;49.594;10.958;2023-02-15T07:06:53;25.83;;;20.03;;
9264;SDS011;4669;49.594;10.958;2023-02-15T07:11:56;26.57;;;20.77;;
9264;SDS011;4669;49.594;10.958;2023-02-15T07:17:16;27.83;;;20.77;;
9264;SDS011;4669;49.594;10.958;2023-02-15T07:22:18;27.98;;;20.95;;
9264;SDS011;4669;49.594;10.958;2023-02-15T07:27:21;26.93;;;21.27;;
9264;SDS011;4669;49.594;10.958;2023-02-15T07:32:23;25.77;;;19.77;;
9264;SDS011;4669;49.594;10.958;2023-02-15T07:37:28;26.23;;;19.95;;
9264;SDS011;4669;49.594;10.958;2023-02-15T07:42:31;27.73;;;21.73;;
9264;SDS011;4669;49.594;10.958;2023-02-15T07:47:33;23.83;;;20.50;;
9264;SDS011;4669;49.594;10.958;2023-02-15T07:52:35;27.80;;;21.27;;
9264;SDS011;4669;49.594;10.958;2023-02-15T07:57:38;27.17;;;21.13;;
9264;SDS011;4669;49.594;10.958;2023-02-15T08:02:47;25.35;;;19.70;;
9264;SDS011;4669;49.594;10.958;2023-02-15T08:08:10;38.38;;;26.58;;
9264;SDS011;4669;49.594;10.958;2023-02-15T08:13:31;28.45;;;19.92;;
9264;SDS011;4669;49.594;10.958;2023-02-15T08:18:32;27.83;;;19.90;;
9264;SDS011;4669;49.594;10.958;2023-02-15T08:23:35;28.73;;;21.10;;
9264;SDS011;4669;49.594;10.958;2023-02-15T08:28:38;25.75;;;19.23;;
9264;SDS011;4669;49.594;10.958;2023-02-15T08:33:41;22.90;;;18.13;;
9264;SDS011;4669;49.594;10.958;2023-02-15T08:38:44;24.42;;;19.42;;
9264;SDS011;4669;49.594;10.958;2023-02-15T08:43:48;24.93;;;18.73;;
9264;SDS011;4669;49.594;10.958;2023-02-15T08:48:53;28.63;;;19.63;;
9264;SDS011;4669;49.594;10.958;2023-02-15T08:53:56;26.35;;;19.02;;
9264;SDS011;4669;49.594;10.958;2023-02-15T08:59:01;30.25;;;21.52;;
9264;SDS011;4669;49.594;10.958;2023-02-15T09:04:05;31.83;;;22.02;;
9264;SDS011;4669;49.594;10.958;2023-02-15T09:09:08;27.00;;;18.77;;
9264;SDS011;4669;49.594;10.958;2023-02-15T09:14:13;28.80;;;18.47;;
9264;SDS011;4669;49.594;10.958;2023-02-15T09:19:17;24.83;;;19.23;;
9264;SDS011;4669;49.594;10.958;2023-02-15T09:24:20;26.05;;;18.38;;
9264;SDS011;4669;49.594;10.958;2023-02-15T09:29:23;23.40;;;17.08;;
9264;SDS011;4669;49.594;10.958;2023-02-15T09:34:25;23.83;;;18.35;;
9264;SDS011;4669;49.594;10.958;2023-02-15T09:39:27;25.48;;;18.67;;
9264;SDS011;4669;49.594;10.958;2023-02-15T09:44:37;22.88;;;17.05;;
9264;SDS011;4669;49.594;10.958;2023-02-15T09:50:00;22.92;;;17.08;;
9264;SDS011;4669;49.594;10.958;2023-02-15T09:55:11;23.98;;;17.25;;
9264;SDS011;4669;49.594;10.958;2023-02-15T10:00:28;24.58;;;18.27;;
9264;SDS011;4669;49.594;10.958;2023-02-15T10:05:40;22.35;;;17.13;;
9264;SDS011;4669;49.594;10.958;2023-02-15T10:10:57;25.52;;;17.17;;
9264;SDS011;4669;49.594;10.958;2023-02-15T10:16:23;25.20;;;18.27;;
9264;SDS011;4669;49.594;10.958;2023-02-15T10:21:36;23.60;;;17.58;;
9264;SDS011;4669;49.594;10.958;2023-02-15T10:26:49;26.98;;;19.35;;
9264;SDS011;4669;49.594;10.958;2023-02-15T10:31:54;26.88;;;20.13;;
9264;SDS011;4669;49.594;10.958;2023-02-15T10:37:14;27.23;;;18.80;;
9264;SDS011;4669;49.594;10.958;2023-02-15T10:42:35;26.00;;;17.17;;
9264;SDS011;4669;49.594;10.958;2023-02-15T10:47:52;22.33;;;17.35;;
9264;SDS011;4669;49.594;10.958;2023-02-15T10:53:13;27.65;;;19.73;;
9264;SDS011;4669;49.594;10.958;2023-02-15T10:58:30;24.83;;;17.33;;
9264;SDS011;4669;49.594;10.958;2023-02-15T11:03:49;23.33;;;16.30;;
9264;SDS011;4669;49.594;10.958;2023-02-15T11:09:10;20.30;;;15.48;;
9264;SDS011;4669;49.594;10.958;2023-02-15T11:14:17;23.65;;;16.65;;
9264;SDS011;4669;49.594;10.958;2023-02-15T11:19:26;21.20;;;16.05;;
9264;SDS011;4669;49.594;10.958;2023-02-15T11:24:33;22.48;;;15.95;;
9264;SDS011;4669;49.594;10.958;2023-02-15T11:29:39;23.98;;;16.88;;
9264;SDS011;4669;49.594;10.958;2023-02-15T11:34:47;25.33;;;14.60;;
9264;SDS011;4669;49.594;10.958;2023-02-15T11:39:52;20.95;;;15.75;;
9264;SDS011;4669;49.594;10.958;2023-02-15T11:44:56;22.45;;;15.80;;
9264;SDS011;4669;49.594;10.958;2023-02-15T11:50:05;21.95;;;15.13;;
9264;SDS011;4669;49.594;10.958;2023-02-15T11:55:12;21.83;;;14.95;;
9264;SDS011;4669;49.594;10.958;2023-02-15T12:00:22;22.08;;;16.70;;
9264;SDS011;4669;49.594;10.958;2023-02-15T12:05:37;22.70;;;16.63;;
9264;SDS011;4669;49.594;10.958;2023-02-15T12:10:45;25.67;;;17.60;;
9264;SDS011;4669;49.594;10.958;2023-02-15T12:16:04;24.45;;;17.15;;
9264;SDS011;4669;49.594;10.958;2023-02-15T12:21:12;22.70;;;16.88;;
9264;SDS011;4669;49.594;10.958;2023-02-15T12:26:22;21.75;;;15.90;;
9264;SDS011;4669;49.594;10.958;2023-02-15T12:31:27;21.17;;;17.10;;
9264;SDS011;4669;49.594;10.958;2023-02-15T12:36:39;23.33;;;17.55;;
9264;SDS011;4669;49.594;10.958;2023-02-15T12:41:45;21.42;;;17.15;;
9264;SDS011;4669;49.594;10.958;2023-02-15T12:46:58;20.77;;;17.08;;
9264;SDS011;4669;49.594;10.958;2023-02-15T12:52:04;21.70;;;17.02;;
9264;SDS011;4669;49.594;10.958;2023-02-15T13:02:34;23.50;;;17.05;;
9264;SDS011;4669;49.594;10.958;2023-02-15T13:07:45;22.65;;;16.25;;
9264;SDS011;4669;49.594;10.958;2023-02-15T13:12:50;21.58;;;16.75;;
9264;SDS011;4669;49.594;10.958;2023-02-15T13:17:54;22.88;;;16.73;;
9264;SDS011;4669;49.594;10.958;2023-02-15T13:22:59;23.85;;;16.88;;
9264;SDS011;4669;49.594;10.958;2023-02-15T13:28:05;22.80;;;16.77;;
9264;SDS011;4669;49.594;10.958;2023-02-15T13:33:14;24.98;;;17.38;;
9264;SDS011;4669;49.594;10.958;2023-02-15T13:38:27;23.80;;;18.85;;
9264;SDS011;4669;49.594;10.958;2023-02-15T13:43:43;24.13;;;16.75;;
9264;SDS011;4669;49.594;10.958;2023-02-15T13:48:57;24.88;;;17.65;;
9264;SDS011;4669;49.594;10.958;2023-02-15T13:54:26;37.90;;;26.92;;
9264;SDS011;4669;49.594;10.958;2023-02-15T13:59:54;23.15;;;18.83;;
9264;SDS011;4669;49.594;10.958;2023-02-15T14:10:53;26.70;;;19.83;;
9264;SDS011;4669;49.594;10.958;2023-02-15T14:16:03;26.85;;;20.00;;
9264;SDS011;4669;49.594;10.958;2023-02-15T14:21:10;33.10;;;21.33;;
9264;SDS011;4669;49.594;10.958;2023-02-15T14:26:21;28.50;;;19.80;;
9264;SDS011;4669;49.594;10.958;2023-02-15T14:31:33;29.17;;;18.92;;
9264;SDS011;4669;49.594;10.958;2023-02-15T14:36:38;27.90;;;19.70;;
9264;SDS011;4669;49.594;10.958;2023-02-15T14:41:43;31.10;;;19.17;;
9264;SDS011;4669;49.594;10.958;2023-02-15T14:46:50;28.20;;;20.05;;
9264;SDS011;4669;49.594;10.958;2023-02-15T14:52:03;28.88;;;19.80;;
9264;SDS011;4669;49.594;10.958;2023-02-15T14:57:24;25.83;;;19.63;;
9264;SDS011;4669;49.594;10.958;2023-02-15T15:02:42;30.25;;;20.25;;
9264;SDS011;4669;49.594;10.958;2023-02-15T15:07:48;29.45;;;21.30;;
9264;SDS011;4669;49.594;10.958;2023-02-15T15:12:53;30.75;;;22.35;;
9264;SDS011;4669;49.594;10.958;2023-02-15T15:17:57;28.00;;;21.30;;
9264;SDS011;4669;49.594;10.958;2023-02-15T15:28:54;31.02;;;22.88;;
9264;SDS011;4669;49.594;10.958;2023-02-15T15:34:09;32.80;;;22.60;;
9264;SDS011;4669;49.594;10.958;2023-02-15T15:39:32;47.35;;;31.58;;
9264;SDS011;4669;49.594;10.958;2023-02-15T15:45:02;33.78;;;23.60;;
9264;SDS011;4669;49.594;10.958;2023-02-15T15:50:20;31.60;;;22.85;;
9264;SDS011;4669;49.594;10.958;2023-02-15T15:55:22;31.13;;;23.23;;
9264;SDS011;4669;49.594;10.958;2023-02-15T16:00:31;40.25;;;25.42;;
9264;SDS011;4669;49.594;10.958;2023-02-15T16:05:38;36.50;;;23.73;;
9264;SDS011;4669;49.594;10.958;2023-02-15T16:10:40;35.42;;;25.35;;
9264;SDS011;4669;49.594;10.958;2023-02-15T16:15:44;35.63;;;23.58;;
9264;SDS011;4669;49.594;10.958;2023-02-15T16:20:50;33.80;;;24.35;;
9264;SDS011;4669;49.594;10.958;2023-02-15T16:25:55;38.83;;;26.10;;
9264;SDS011;4669;49.594;10.958;2023-02-15T16:31:10;36.33;;;26.48;;
9264;SDS011;4669;49.594;10.958;2023-02-15T16:36:19;34.97;;;23.60;;
9264;SDS011;4669;49.594;10.958;2023-02-15T16:41:23;33.60;;;23.67;;
9264;SDS011;4669;49.594;10.958;2023-02-15T16:46:29;37.17;;;24.23;;
9264;SDS011;4669;49.594;10.958;2023-02-15T16:51:33;37.05;;;22.92;;
9264;SDS011;4669;49.594;10.958;2023-02-15T16:56:36;33.83;;;24.27;;
9264;SDS011;4669;49.594;10.958;2023-02-15T17:01:40;31.50;;;22.98;;
9264;SDS011;4669;49.594;10.958;2023-02-15T17:06:54;30.20;;;21.77;;
9264;SDS011;4669;49.594;10.958;2023-02-15T17:12:00;34.83;;;22.88;;
9264;SDS011;4669;49.594;10.958;2023-02-15T17:17:06;32.00;;;23.63;;
9264;SDS011;4669;49.594;10.958;2023-02-15T17:22:16;52.22;;;33.83;;
9264;SDS011;4669;49.594;10.958;2023-02-15T17:27:22;33.88;;;25.15;;
9264;SDS011;4669;49.594;10.958;2023-02-15T17:32:28;34.03;;;24.88;;
9264;SDS011;4669;49.594;10.958;2023-02-15T17:37:31;34.10;;;24.58;;
9264;SDS011;4669;49.594;10.958;2023-02-15T17:42:44;34.10;;;24.27;;
9264;SDS011;4669;49.594;10.958;2023-02-15T17:47:48;40.30;;;29.63;;
9264;SDS011;4669;49.594;10.958;2023-02-15T17:52:50;34.75;;;25.45;;
9264;SDS011;4669;49.594;10.958;2023-02-15T17:57:54;31.85;;;23.92;;
9264;SDS011;4669;49.594;10.958;2023-02-15T18:02:57;38.47;;;24.92;;
9264;SDS011;4669;49.594;10.958;2023-02-15T18:08:17;47.33;;;32.40;;
9264;SDS011;4669;49.594;10.958;2023-02-15T18:13:38;49.22;;;34.92;;
9264;SDS011;4669;49.594;10.958;2023-02-15T18:18:42;50.10;;;35.85;;
9264;SDS011;4669;49.594;10.958;2023-02-15T18:23:45;48.05;;;34.53;;
9264;SDS011;4669;49.594;10.958;2023-02-15T18:28:47;47.08;;;31.15;;
9264;SDS011;4669;49.594;10.958;2023-02-15T18:33:52;43.92;;;31.42;;
9264;SDS011;4669;49.594;10.958;2023-02-15T18:38:55;46.92;;;32.80;;
9264;SDS011;4669;49.594;10.958;2023-02-15T18:43:57;49.58;;;33.95;;
9264;SDS011;4669;49.594;10.958;2023-02-15T18:49:01;56.97;;;35.92;;
9264;SDS011;4669;49.594;10.958;2023-02-15T18:54:03;59.28;;;39.25;;
9264;SDS011;4669;49.594;10.958;2023-02-15T18:59:05;61.65;;;41.22;;
9264;SDS011;4669;49.594;10.958;2023-02-15T19:04:08;58.58;;;37.70;;
9264;SDS011;4669;49.594;10.958;2023-02-15T19:09:11;57.03;;;38.83;;
9264;SDS011;4669;49.594;10.958;2023-02-15T19:14:21;60.42;;;39.05;;
9264;SDS011;4669;49.594;10.958;2023-02-15T19:19:27;64.47;;;40.78;;
9264;SDS011;4669;49.594;10.958;2023-02-15T19:24:30;58.40;;;37.40;;
9264;SDS011;4669;49.594;10.958;2023-02-15T19:29:37;60.60;;;35.65;;
9264;SDS011;4669;49.594;10.958;2023-02-15T19:34:41;56.33;;;34.57;;
9264;SDS011;4669;49.594;10.958;2023-02-15T19:39:43;61.72;;;38.85;;
9264;SDS011;4669;49.594;10.958;2023-02-15T19:44:45;58.00;;;37.90;;
9264;SDS011;4669;49.594;10.958;2023-02-15T19:49:48;54.78;;;35.78;;
9264;SDS011;4669;49.594;10.958;2023-02-15T19:54:51;68.22;;;40.63;;
9264;SDS011;4669;49.594;10.958;2023-02-15T19:59:54;59.70;;;37.30;;
9264;SDS011;4669;49.594;10.958;2023-02-15T20:04:57;68.88;;;39.85;;
9264;SDS011;4669;49.594;10.958;2023-02-15T20:09:59;59.78;;;38.75;;
9264;SDS011;4669;49.594;10.958;2023-02-15T20:15:04;61.22;;;38.78;;
9264;SDS011;4669;49.594;10.958;2023-02-15T20:20:20;57.95;;;37.50;;
9264;SDS011;4669;49.594;10.958;2023-02-15T20:25:25;52.33;;;34.72;;
9264;SDS011;4669;49.594;10.958;2023-02-15T20:30:30;49.30;;;33.22;;
9264;SDS011;4669;49.594;10.958;2023-02-15T20:35:34;53.30;;;35.63;;
9264;SDS011;4669;49.594;10.958;2023-02-15T20:40:35;57.88;;;37.08;;
9264;SDS011;4669;49.594;10.958;2023-02-15T20:45:58;58.85;;;36.90;;
9264;SDS011;4669;49.594;10.958;2023-02-15T20:51:02;54.60;;;37.33;;
9264;SDS011;4669;49.594;10.958;2023-02-15T20:56:04;59.78;;;37.72;;
9264;SDS011;4669;49.594;10.958;2023-02-15T21:01:08;63.65;;;39.55;;
9264;SDS011;4669;49.594;10.958;2023-02-15T21:06:13;61.55;;;39.22;;
9264;SDS011;4669;49.594;10.958;2023-02-15T21:11:17;71.47;;;44.90;;
9264;SDS011;4669;49.594;10.958;2023-02-15T21:16:20;65.28;;;43.22;;
9264;SDS011;4669;49.594;10.958;2023-02-15T21:21:23;64.47;;;42.10;;
9264;SDS011;4669;49.594;10.958;2023-02-15T21:26:25;59.28;;;39.53;;
9264;SDS011;4669;49.594;10.958;2023-02-15T21:31:27;64.45;;;40.55;;
9264;SDS011;4669;49.594;10.958;2023-02-15T21:36:30;59.38;;;39.15;;
9264;SDS011;4669;49.594;10.958;2023-02-15T21:41:32;58.05;;;38.40;;
9264;SDS011;4669;49.594;10.958;2023-02-15T21:46:51;60.37;;;39.43;;
9264;SDS011;4669;49.594;10.958;2023-02-15T21:52:12;58.08;;;37.75;;
9264;SDS011;4669;49.594;10.958;2023-02-15T21:57:16;55.40;;;37.92;;
9264;SDS011;4669;49.594;10.958;2023-02-15T22:02:24;60.47;;;39.97;;
9264;SDS011;4669;49.594;10.958;2023-02-15T22:07:29;57.85;;;37.35;;
9264;SDS011;4669;49.594;10.958;2023-02-15T22:12:31;56.60;;;37.97;;
9264;SDS011;4669;49.594;10.958;2023-02-15T22:17:33;56.95;;;38.25;;
9264;SDS011;4669;49.594;10.958;2023-02-15T22:22:36;56.42;;;36.13;;
9264;SDS011;4669;49.594;10.958;2023-02-15T22:27:38;54.08;;;36.28;;
9264;SDS011;4669;49.594;10.958;2023-02-15T22:32:41;57.97;;;36.97;;
9264;SDS011;4669;49.594;10.958;2023-02-15T22:37:44;55.88;;;37.30;;
9264;SDS011;4669;49.594;10.958;2023-02-15T22:42:47;57.00;;;37.58;;
9264;SDS011;4669;49.594;10.958;2023-02-15T22:47:52;61.83;;;38.17;;
9264;SDS011;4669;49.594;10.958;2023-02-15T22:52:57;53.67;;;36.15;;
9264;SDS011;4669;49.594;10.958;2023-02-15T22:58:00;52.37;;;35.93;;
